AAY2933 KEVV-KSFB
Flight info
| Callsign | AAY2933 |
|---|---|
| Flight time | 1h 28m |
| Altitude | 37000 |
| Route | BWG GQO THRSR Q79 ZPLEN BIGDE SHREK2 |
| Aircraft | B38M/M-SDE1FGHILORVWXY/HB1 |
Departure
| Time | 2026-05-05 22:29 |
|---|---|
| Airport | Evansville Regional Airport (KEVV) |
Arrival
| Time | 2026-05-05 23:58 |
|---|---|
| Airport | Orlando Sanford International Airport (KSFB) |
| Time | Latitude | Longitude | Altitude | Speed | Heading |
|---|---|---|---|---|---|
| 2026-05-05 21:50 | 38.04509 | -87.52746 | 397 ft | 0 kts | 283° |
| 2026-05-05 22:18 | 38.04508 | -87.52739 | 397 ft | 4 kts | 291° |
| 2026-05-05 22:18 | 38.04498 | -87.52730 | 396 ft | 4 kts | 19° |
| 2026-05-05 22:18 | 38.04478 | -87.52744 | 395 ft | 1 kts | 39° |
| 2026-05-05 22:19 | 38.04474 | -87.52748 | 396 ft | 0 kts | 39° |
| 2026-05-05 22:22 | 38.04475 | -87.52747 | 396 ft | 1 kts | 39° |
| 2026-05-05 22:23 | 38.04502 | -87.52713 | 396 ft | 9 kts | 46° |
| 2026-05-05 22:23 | 38.04545 | -87.52651 | 396 ft | 9 kts | 59° |
| 2026-05-05 22:23 | 38.04549 | -87.52583 | 395 ft | 7 kts | 110° |
| 2026-05-05 22:23 | 38.04523 | -87.52529 | 396 ft | 7 kts | 118° |
| 2026-05-05 22:24 | 38.04527 | -87.52460 | 390 ft | 10 kts | 60° |
| 2026-05-05 22:24 | 38.04571 | -87.52386 | 394 ft | 10 kts | 51° |
| 2026-05-05 22:24 | 38.04610 | -87.52325 | 398 ft | 8 kts | 50° |
| 2026-05-05 22:24 | 38.04643 | -87.52276 | 397 ft | 8 kts | 50° |
| 2026-05-05 22:25 | 38.04682 | -87.52218 | 399 ft | 10 kts | 50° |
| 2026-05-05 22:25 | 38.04731 | -87.52141 | 398 ft | 12 kts | 51° |
| 2026-05-05 22:25 | 38.04796 | -87.52056 | 402 ft | 14 kts | 40° |
| 2026-05-05 22:25 | 38.04880 | -87.51972 | 402 ft | 16 kts | 38° |
| 2026-05-05 22:26 | 38.04969 | -87.51885 | 406 ft | 15 kts | 38° |
| 2026-05-05 22:26 | 38.05044 | -87.51810 | 408 ft | 12 kts | 38° |
| 2026-05-05 22:26 | 38.05105 | -87.51750 | 410 ft | 10 kts | 38° |
| 2026-05-05 22:26 | 38.05152 | -87.51701 | 409 ft | 7 kts | 39° |
| 2026-05-05 22:27 | 38.05189 | -87.51664 | 412 ft | 7 kts | 38° |
| 2026-05-05 22:27 | 38.05240 | -87.51614 | 407 ft | 11 kts | 38° |
| 2026-05-05 22:27 | 38.05304 | -87.51550 | 412 ft | 12 kts | 38° |
| 2026-05-05 22:27 | 38.05361 | -87.51488 | 413 ft | 9 kts | 56° |
| 2026-05-05 22:28 | 38.05357 | -87.51420 | 416 ft | 7 kts | 116° |
| 2026-05-05 22:28 | 38.05332 | -87.51378 | 411 ft | 4 kts | 149° |
| 2026-05-05 22:28 | 38.05310 | -87.51380 | 415 ft | 3 kts | 206° |
| 2026-05-05 22:28 | 38.05284 | -87.51401 | 411 ft | 10 kts | 215° |
| 2026-05-05 22:29 | 38.05004 | -87.51676 | 409 ft | 91 kts | 218° |
| 2026-05-05 22:29 | 38.04312 | -87.52366 | 396 ft | 158 kts | 217° |
| 2026-05-05 22:29 | 38.03362 | -87.53289 | 886 ft | 181 kts | 218° |
| 2026-05-05 22:29 | 38.02402 | -87.54183 | 2169 ft | 165 kts | 216° |
| 2026-05-05 22:30 | 38.01411 | -87.55116 | 2836 ft | 190 kts | 217° |
| 2026-05-05 22:30 | 38.00270 | -87.56176 | 3306 ft | 220 kts | 212° |
| 2026-05-05 22:30 | 37.98797 | -87.56718 | 4273 ft | 231 kts | 183° |
| 2026-05-05 22:30 | 37.97172 | -87.56250 | 5015 ft | 253 kts | 156° |
| 2026-05-05 22:31 | 37.95760 | -87.54778 | 5877 ft | 272 kts | 139° |
| 2026-05-05 22:31 | 37.94371 | -87.53088 | 6669 ft | 281 kts | 141° |
| 2026-05-05 22:31 | 37.92919 | -87.51373 | 7493 ft | 290 kts | 143° |
| 2026-05-05 22:31 | 37.91423 | -87.49632 | 8457 ft | 293 kts | 145° |
| 2026-05-05 22:32 | 37.89908 | -87.47880 | 9399 ft | 298 kts | 145° |
| 2026-05-05 22:32 | 37.88355 | -87.46096 | 10230 ft | 304 kts | 145° |
| 2026-05-05 22:32 | 37.86738 | -87.44249 | 10764 ft | 322 kts | 145° |
| 2026-05-05 22:32 | 37.85022 | -87.42304 | 11211 ft | 340 kts | 144° |
| 2026-05-05 22:33 | 37.83226 | -87.40267 | 11764 ft | 353 kts | 144° |
| 2026-05-05 22:33 | 37.81364 | -87.38151 | 12364 ft | 364 kts | 144° |
| 2026-05-05 22:33 | 37.79470 | -87.35988 | 13160 ft | 369 kts | 144° |
| 2026-05-05 22:33 | 37.77548 | -87.33790 | 13869 ft | 375 kts | 144° |
| 2026-05-05 22:34 | 37.75595 | -87.31560 | 14552 ft | 380 kts | 143° |
| 2026-05-05 22:34 | 37.73624 | -87.29308 | 15280 ft | 384 kts | 143° |
| 2026-05-05 22:34 | 37.71661 | -87.27065 | 15962 ft | 388 kts | 143° |
| 2026-05-05 22:34 | 37.69648 | -87.24769 | 16644 ft | 392 kts | 143° |
| 2026-05-05 22:35 | 37.67616 | -87.22451 | 17300 ft | 396 kts | 143° |
| 2026-05-05 22:35 | 37.65557 | -87.20105 | 17955 ft | 400 kts | 143° |
| 2026-05-05 22:35 | 37.63483 | -87.17743 | 18548 ft | 404 kts | 143° |
| 2026-05-05 22:35 | 37.61386 | -87.15356 | 19120 ft | 408 kts | 143° |
| 2026-05-05 22:36 | 37.59263 | -87.12942 | 19673 ft | 412 kts | 143° |
| 2026-05-05 22:36 | 37.57128 | -87.10517 | 20244 ft | 415 kts | 144° |
| 2026-05-05 22:36 | 37.54970 | -87.08065 | 20795 ft | 420 kts | 144° |
| 2026-05-05 22:36 | 37.52789 | -87.05591 | 21309 ft | 424 kts | 144° |
| 2026-05-05 22:37 | 37.50591 | -87.03100 | 21844 ft | 427 kts | 144° |
| 2026-05-05 22:37 | 37.48374 | -87.00588 | 22414 ft | 431 kts | 144° |
| 2026-05-05 22:37 | 37.46133 | -86.98052 | 22938 ft | 435 kts | 144° |
| 2026-05-05 22:37 | 37.43872 | -86.95494 | 23452 ft | 439 kts | 144° |
| 2026-05-05 22:38 | 37.41595 | -86.92922 | 23848 ft | 441 kts | 144° |
| 2026-05-05 22:38 | 37.39304 | -86.90337 | 24283 ft | 444 kts | 144° |
| 2026-05-05 22:38 | 37.36999 | -86.87737 | 24688 ft | 447 kts | 144° |
| 2026-05-05 22:38 | 37.34675 | -86.85115 | 25065 ft | 450 kts | 144° |
| 2026-05-05 22:39 | 37.32333 | -86.82479 | 25444 ft | 453 kts | 144° |
| 2026-05-05 22:39 | 37.29980 | -86.79831 | 25818 ft | 456 kts | 144° |
| 2026-05-05 22:39 | 37.27638 | -86.77198 | 26188 ft | 459 kts | 144° |
| 2026-05-05 22:39 | 37.25252 | -86.74517 | 26545 ft | 463 kts | 144° |
| 2026-05-05 22:40 | 37.22845 | -86.71816 | 26933 ft | 465 kts | 144° |
| 2026-05-05 22:40 | 37.20424 | -86.69100 | 27294 ft | 468 kts | 144° |
| 2026-05-05 22:40 | 37.17985 | -86.66366 | 27645 ft | 471 kts | 144° |
| 2026-05-05 22:40 | 37.15534 | -86.63622 | 28004 ft | 474 kts | 144° |
| 2026-05-05 22:41 | 37.13062 | -86.60857 | 28342 ft | 477 kts | 144° |
| 2026-05-05 22:41 | 37.11416 | -86.59017 | 28554 ft | 479 kts | 144° |
| 2026-05-05 22:41 | 37.08072 | -86.55283 | 29026 ft | 483 kts | 144° |
| 2026-05-05 22:41 | 37.06370 | -86.53384 | 29223 ft | 487 kts | 144° |
| 2026-05-05 22:42 | 37.03002 | -86.49629 | 29644 ft | 491 kts | 144° |
| 2026-05-05 22:42 | 37.01310 | -86.47745 | 29860 ft | 492 kts | 144° |
| 2026-05-05 22:42 | 36.98746 | -86.44893 | 30107 ft | 496 kts | 144° |
| 2026-05-05 22:42 | 36.96057 | -86.42191 | 30319 ft | 490 kts | 155° |
| 2026-05-05 22:43 | 36.93067 | -86.40195 | 30476 ft | 489 kts | 159° |
| 2026-05-05 22:43 | 36.90039 | -86.38185 | 30688 ft | 494 kts | 159° |
| 2026-05-05 22:43 | 36.86985 | -86.36175 | 30934 ft | 497 kts | 159° |
| 2026-05-05 22:43 | 36.83906 | -86.34168 | 31187 ft | 500 kts | 160° |
| 2026-05-05 22:44 | 36.80815 | -86.32158 | 31407 ft | 503 kts | 160° |
| 2026-05-05 22:44 | 36.77696 | -86.30133 | 31652 ft | 507 kts | 160° |
| 2026-05-05 22:44 | 36.74558 | -86.28097 | 31893 ft | 510 kts | 160° |
| 2026-05-05 22:44 | 36.71399 | -86.26050 | 32123 ft | 513 kts | 160° |
| 2026-05-05 22:45 | 36.68222 | -86.23993 | 32318 ft | 516 kts | 160° |
| 2026-05-05 22:45 | 36.65033 | -86.21930 | 32553 ft | 520 kts | 160° |
| 2026-05-05 22:45 | 36.61816 | -86.19851 | 32808 ft | 522 kts | 160° |
| 2026-05-05 22:45 | 36.58591 | -86.17768 | 33117 ft | 523 kts | 160° |
| 2026-05-05 22:46 | 36.55390 | -86.15702 | 33401 ft | 525 kts | 160° |
| 2026-05-05 22:46 | 36.52147 | -86.13614 | 33680 ft | 526 kts | 160° |
| 2026-05-05 22:46 | 36.48891 | -86.11518 | 33935 ft | 527 kts | 160° |
| 2026-05-05 22:46 | 36.45629 | -86.09419 | 34174 ft | 529 kts | 160° |
| 2026-05-05 22:47 | 36.42359 | -86.07319 | 34399 ft | 529 kts | 160° |
| 2026-05-05 22:47 | 36.39086 | -86.05218 | 34626 ft | 530 kts | 161° |
| 2026-05-05 22:47 | 36.35803 | -86.03112 | 34868 ft | 531 kts | 161° |
| 2026-05-05 22:47 | 36.32526 | -86.01012 | 35128 ft | 531 kts | 161° |
| 2026-05-05 22:48 | 36.29240 | -85.98909 | 35357 ft | 531 kts | 161° |
| 2026-05-05 22:48 | 36.25959 | -85.96810 | 35612 ft | 531 kts | 161° |
| 2026-05-05 22:48 | 36.22666 | -85.94706 | 35836 ft | 531 kts | 161° |
| 2026-05-05 22:48 | 36.19379 | -85.92608 | 36069 ft | 531 kts | 161° |
| 2026-05-05 22:49 | 36.16093 | -85.90513 | 36226 ft | 532 kts | 161° |
| 2026-05-05 22:49 | 36.12793 | -85.88410 | 36361 ft | 534 kts | 161° |
| 2026-05-05 22:49 | 36.09484 | -85.86304 | 36579 ft | 534 kts | 161° |
| 2026-05-05 22:49 | 36.06176 | -85.84201 | 36782 ft | 534 kts | 161° |
| 2026-05-05 22:50 | 36.02873 | -85.82102 | 36924 ft | 535 kts | 161° |
| 2026-05-05 22:50 | 35.96260 | -85.77907 | 36906 ft | 533 kts | 161° |
| 2026-05-05 22:51 | 35.89663 | -85.73730 | 36922 ft | 534 kts | 161° |
| 2026-05-05 22:51 | 35.83061 | -85.69558 | 36929 ft | 533 kts | 161° |
| 2026-05-05 22:52 | 35.76458 | -85.65393 | 36930 ft | 533 kts | 161° |
| 2026-05-05 22:52 | 35.69853 | -85.61234 | 36932 ft | 533 kts | 161° |
| 2026-05-05 22:53 | 35.63241 | -85.57078 | 36915 ft | 533 kts | 161° |
| 2026-05-05 22:53 | 35.56667 | -85.52955 | 36931 ft | 534 kts | 161° |
| 2026-05-05 22:54 | 35.50059 | -85.48819 | 36934 ft | 533 kts | 161° |
| 2026-05-05 22:54 | 35.43439 | -85.44680 | 36936 ft | 533 kts | 161° |
| 2026-05-05 22:55 | 35.36829 | -85.40557 | 36933 ft | 533 kts | 161° |
| 2026-05-05 22:55 | 35.30215 | -85.36440 | 36957 ft | 534 kts | 161° |
| 2026-05-05 22:56 | 35.23591 | -85.32324 | 36940 ft | 533 kts | 161° |
| 2026-05-05 22:56 | 35.16958 | -85.28209 | 36938 ft | 534 kts | 161° |
| 2026-05-05 22:57 | 35.10337 | -85.24108 | 36965 ft | 535 kts | 161° |
| 2026-05-05 22:57 | 35.03695 | -85.20002 | 36942 ft | 534 kts | 161° |
| 2026-05-05 22:58 | 34.97050 | -85.15914 | 36952 ft | 533 kts | 163° |
| 2026-05-05 22:58 | 34.90310 | -85.12262 | 36954 ft | 531 kts | 164° |
| 2026-05-05 22:59 | 34.83574 | -85.08575 | 36960 ft | 532 kts | 164° |
| 2026-05-05 22:59 | 34.76817 | -85.04877 | 36976 ft | 532 kts | 164° |
| 2026-05-05 23:00 | 34.66685 | -84.99342 | 36971 ft | 532 kts | 164° |
| 2026-05-05 23:00 | 34.59972 | -84.95685 | 36948 ft | 533 kts | 164° |
| 2026-05-05 23:01 | 34.53198 | -84.91999 | 36984 ft | 534 kts | 164° |
| 2026-05-05 23:01 | 34.46419 | -84.88318 | 36982 ft | 533 kts | 164° |
| 2026-05-05 23:02 | 34.39661 | -84.84654 | 36964 ft | 533 kts | 164° |
| 2026-05-05 23:02 | 34.32880 | -84.80985 | 36962 ft | 533 kts | 164° |
| 2026-05-05 23:03 | 34.26099 | -84.77323 | 36990 ft | 534 kts | 164° |
| 2026-05-05 23:03 | 34.19311 | -84.73663 | 36983 ft | 534 kts | 164° |
| 2026-05-05 23:04 | 34.12527 | -84.70012 | 36989 ft | 534 kts | 164° |
| 2026-05-05 23:04 | 34.05778 | -84.66386 | 37006 ft | 535 kts | 164° |
| 2026-05-05 23:05 | 33.98966 | -84.62732 | 37012 ft | 536 kts | 163° |
| 2026-05-05 23:05 | 33.92159 | -84.59087 | 36974 ft | 535 kts | 163° |
| 2026-05-05 23:06 | 33.85342 | -84.55444 | 36967 ft | 536 kts | 163° |
| 2026-05-05 23:06 | 33.78535 | -84.51813 | 36979 ft | 536 kts | 164° |
| 2026-05-05 23:07 | 33.71721 | -84.48183 | 37012 ft | 536 kts | 164° |
| 2026-05-05 23:07 | 33.64900 | -84.44555 | 37006 ft | 536 kts | 164° |
| 2026-05-05 23:08 | 33.57971 | -84.41526 | 37046 ft | 529 kts | 170° |
| 2026-05-05 23:08 | 33.50986 | -84.38710 | 36993 ft | 529 kts | 170° |
| 2026-05-05 23:09 | 33.43997 | -84.35906 | 37046 ft | 530 kts | 170° |
| 2026-05-05 23:09 | 33.37056 | -84.33126 | 37046 ft | 530 kts | 170° |
| 2026-05-05 23:10 | 33.30064 | -84.30331 | 37046 ft | 530 kts | 170° |
| 2026-05-05 23:10 | 33.23072 | -84.27540 | 37033 ft | 530 kts | 170° |
| 2026-05-05 23:11 | 33.16066 | -84.24749 | 37018 ft | 531 kts | 170° |
| 2026-05-05 23:11 | 33.09053 | -84.21959 | 37011 ft | 531 kts | 170° |
| 2026-05-05 23:12 | 33.02056 | -84.19180 | 36996 ft | 530 kts | 170° |
| 2026-05-05 23:12 | 32.95052 | -84.16404 | 37028 ft | 532 kts | 170° |
| 2026-05-05 23:13 | 32.88029 | -84.13624 | 37022 ft | 532 kts | 170° |
| 2026-05-05 23:13 | 32.81002 | -84.10847 | 37022 ft | 532 kts | 170° |
| 2026-05-05 23:14 | 32.73982 | -84.08078 | 36975 ft | 532 kts | 170° |
| 2026-05-05 23:14 | 32.66937 | -84.05304 | 37010 ft | 533 kts | 170° |
| 2026-05-05 23:15 | 32.59903 | -84.02538 | 37015 ft | 533 kts | 170° |
| 2026-05-05 23:15 | 32.52862 | -83.99775 | 37011 ft | 533 kts | 170° |
| 2026-05-05 23:16 | 32.45870 | -83.97035 | 36996 ft | 532 kts | 170° |
| 2026-05-05 23:16 | 32.38828 | -83.94280 | 37020 ft | 533 kts | 170° |
| 2026-05-05 23:17 | 32.31791 | -83.91532 | 37003 ft | 532 kts | 170° |
| 2026-05-05 23:17 | 32.24747 | -83.88785 | 37010 ft | 534 kts | 170° |
| 2026-05-05 23:18 | 32.17689 | -83.86037 | 36973 ft | 533 kts | 169° |
| 2026-05-05 23:18 | 32.10637 | -83.83297 | 37019 ft | 534 kts | 169° |
| 2026-05-05 23:19 | 32.03591 | -83.80563 | 37006 ft | 534 kts | 169° |
| 2026-05-05 23:19 | 31.96530 | -83.77827 | 37010 ft | 534 kts | 169° |
| 2026-05-05 23:20 | 31.89476 | -83.75099 | 36991 ft | 533 kts | 169° |
| 2026-05-05 23:20 | 31.82421 | -83.72374 | 37005 ft | 533 kts | 170° |
| 2026-05-05 23:21 | 31.75417 | -83.69673 | 37013 ft | 533 kts | 169° |
| 2026-05-05 23:21 | 31.68422 | -83.66727 | 36976 ft | 542 kts | 157° |
| 2026-05-05 23:22 | 31.61859 | -83.62272 | 36972 ft | 546 kts | 156° |
| 2026-05-05 23:22 | 31.55283 | -83.57817 | 37036 ft | 547 kts | 155° |
| 2026-05-05 23:23 | 31.48699 | -83.53341 | 37028 ft | 546 kts | 155° |
| 2026-05-05 23:23 | 31.42122 | -83.48876 | 37028 ft | 547 kts | 155° |
| 2026-05-05 23:24 | 31.35549 | -83.44422 | 37030 ft | 547 kts | 155° |
| 2026-05-05 23:24 | 31.28967 | -83.39968 | 37009 ft | 547 kts | 155° |
| 2026-05-05 23:25 | 31.22378 | -83.35517 | 37006 ft | 546 kts | 155° |
| 2026-05-05 23:25 | 31.16903 | -83.31825 | 37008 ft | 546 kts | 155° |
| 2026-05-05 23:26 | 31.10332 | -83.27400 | 37014 ft | 547 kts | 155° |
| 2026-05-05 23:26 | 31.03746 | -83.22970 | 36993 ft | 546 kts | 155° |
| 2026-05-05 23:27 | 30.97155 | -83.18545 | 37004 ft | 546 kts | 155° |
| 2026-05-05 23:27 | 30.90571 | -83.14132 | 37038 ft | 546 kts | 155° |
| 2026-05-05 23:28 | 30.83969 | -83.09715 | 37023 ft | 547 kts | 155° |
| 2026-05-05 23:28 | 30.77370 | -83.05306 | 37020 ft | 547 kts | 155° |
| 2026-05-05 23:29 | 30.70745 | -83.00961 | 36864 ft | 542 kts | 159° |
| 2026-05-05 23:29 | 30.67343 | -82.99073 | 35857 ft | 547 kts | 160° |
| 2026-05-05 23:29 | 30.63910 | -82.97197 | 34894 ft | 554 kts | 160° |
| 2026-05-05 23:30 | 30.60444 | -82.95314 | 34481 ft | 546 kts | 160° |
| 2026-05-05 23:30 | 30.56971 | -82.93429 | 33965 ft | 542 kts | 160° |
| 2026-05-05 23:30 | 30.53603 | -82.91604 | 33286 ft | 541 kts | 159° |
| 2026-05-05 23:30 | 30.50215 | -82.89770 | 32657 ft | 538 kts | 159° |
| 2026-05-05 23:31 | 30.46833 | -82.87939 | 32139 ft | 533 kts | 159° |
| 2026-05-05 23:31 | 30.43485 | -82.86129 | 31657 ft | 529 kts | 159° |
| 2026-05-05 23:31 | 30.40165 | -82.84335 | 31119 ft | 525 kts | 159° |
| 2026-05-05 23:31 | 30.36855 | -82.82548 | 30566 ft | 523 kts | 159° |
| 2026-05-05 23:32 | 30.33560 | -82.80771 | 29996 ft | 521 kts | 159° |
| 2026-05-05 23:32 | 30.30290 | -82.79008 | 29378 ft | 518 kts | 159° |
| 2026-05-05 23:32 | 30.27035 | -82.77254 | 28850 ft | 513 kts | 158° |
| 2026-05-05 23:32 | 30.23812 | -82.75520 | 28327 ft | 509 kts | 158° |
| 2026-05-05 23:33 | 30.20611 | -82.73798 | 27791 ft | 505 kts | 158° |
| 2026-05-05 23:33 | 30.17437 | -82.72092 | 27246 ft | 501 kts | 158° |
| 2026-05-05 23:33 | 30.14292 | -82.70402 | 26753 ft | 497 kts | 159° |
| 2026-05-05 23:33 | 30.11173 | -82.68728 | 26246 ft | 493 kts | 159° |
| 2026-05-05 23:34 | 30.08074 | -82.67066 | 25742 ft | 489 kts | 159° |
| 2026-05-05 23:34 | 30.05001 | -82.65419 | 25245 ft | 485 kts | 159° |
| 2026-05-05 23:34 | 30.01953 | -82.63786 | 24750 ft | 478 kts | 159° |
| 2026-05-05 23:34 | 29.98985 | -82.62197 | 24287 ft | 463 kts | 159° |
| 2026-05-05 23:35 | 29.96105 | -82.60656 | 23845 ft | 449 kts | 159° |
| 2026-05-05 23:35 | 29.93307 | -82.59160 | 23347 ft | 437 kts | 159° |
| 2026-05-05 23:35 | 29.90575 | -82.57700 | 22869 ft | 426 kts | 159° |
| 2026-05-05 23:35 | 29.87897 | -82.56271 | 22451 ft | 423 kts | 159° |
| 2026-05-05 23:36 | 29.85240 | -82.54852 | 22048 ft | 420 kts | 159° |
| 2026-05-05 23:36 | 29.82596 | -82.53442 | 21629 ft | 417 kts | 159° |
| 2026-05-05 23:36 | 29.79998 | -82.52057 | 21221 ft | 415 kts | 159° |
| 2026-05-05 23:36 | 29.77386 | -82.50666 | 20820 ft | 413 kts | 159° |
| 2026-05-05 23:37 | 29.74790 | -82.49283 | 20436 ft | 410 kts | 158° |
| 2026-05-05 23:37 | 29.72206 | -82.47908 | 20047 ft | 408 kts | 158° |
| 2026-05-05 23:37 | 29.69630 | -82.46538 | 19654 ft | 406 kts | 158° |
| 2026-05-05 23:37 | 29.67069 | -82.45177 | 19257 ft | 404 kts | 158° |
| 2026-05-05 23:38 | 29.64524 | -82.43825 | 18859 ft | 403 kts | 158° |
| 2026-05-05 23:38 | 29.61983 | -82.42476 | 18473 ft | 401 kts | 158° |
| 2026-05-05 23:38 | 29.59450 | -82.41132 | 18027 ft | 400 kts | 158° |
| 2026-05-05 23:38 | 29.56936 | -82.39799 | 17639 ft | 396 kts | 157° |
| 2026-05-05 23:39 | 29.54430 | -82.38470 | 17174 ft | 396 kts | 157° |
| 2026-05-05 23:39 | 29.51943 | -82.37153 | 16765 ft | 393 kts | 157° |
| 2026-05-05 23:39 | 29.49468 | -82.35843 | 16366 ft | 391 kts | 157° |
| 2026-05-05 23:39 | 29.47005 | -82.34540 | 15977 ft | 388 kts | 157° |
| 2026-05-05 23:40 | 29.44564 | -82.33249 | 15577 ft | 382 kts | 157° |
| 2026-05-05 23:40 | 29.42174 | -82.31985 | 15206 ft | 376 kts | 157° |
| 2026-05-05 23:40 | 29.39798 | -82.30730 | 14816 ft | 375 kts | 157° |
| 2026-05-05 23:40 | 29.37433 | -82.29480 | 14415 ft | 373 kts | 157° |
| 2026-05-05 23:41 | 29.35079 | -82.28238 | 14035 ft | 372 kts | 157° |
| 2026-05-05 23:41 | 29.32739 | -82.27003 | 13474 ft | 367 kts | 157° |
| 2026-05-05 23:41 | 29.30441 | -82.25792 | 12933 ft | 359 kts | 157° |
| 2026-05-05 23:41 | 29.28199 | -82.24611 | 12527 ft | 351 kts | 157° |
| 2026-05-05 23:42 | 29.25989 | -82.23448 | 12209 ft | 347 kts | 157° |
| 2026-05-05 23:42 | 29.23804 | -82.22298 | 11879 ft | 345 kts | 157° |
| 2026-05-05 23:42 | 29.21631 | -82.21154 | 11527 ft | 343 kts | 157° |
| 2026-05-05 23:42 | 29.19474 | -82.20020 | 11198 ft | 340 kts | 158° |
| 2026-05-05 23:43 | 29.17350 | -82.18903 | 11044 ft | 331 kts | 158° |
| 2026-05-05 23:43 | 29.15374 | -82.17646 | 10904 ft | 324 kts | 141° |
| 2026-05-05 23:43 | 29.13919 | -82.15728 | 10642 ft | 319 kts | 124° |
| 2026-05-05 23:43 | 29.12671 | -82.13683 | 10386 ft | 316 kts | 126° |
| 2026-05-05 23:44 | 29.11413 | -82.11644 | 10132 ft | 312 kts | 125° |
| 2026-05-05 23:44 | 29.10175 | -82.09628 | 9882 ft | 307 kts | 125° |
| 2026-05-05 23:44 | 29.08957 | -82.07641 | 9606 ft | 303 kts | 125° |
| 2026-05-05 23:44 | 29.07746 | -82.05662 | 9365 ft | 303 kts | 125° |
| 2026-05-05 23:45 | 29.06541 | -82.03694 | 9145 ft | 300 kts | 126° |
| 2026-05-05 23:45 | 29.05366 | -82.01775 | 9064 ft | 288 kts | 126° |
| 2026-05-05 23:45 | 29.04242 | -81.99939 | 9017 ft | 278 kts | 126° |
| 2026-05-05 23:45 | 29.03123 | -81.98115 | 8959 ft | 286 kts | 126° |
| 2026-05-05 23:46 | 29.01966 | -81.96227 | 8780 ft | 294 kts | 126° |
| 2026-05-05 23:46 | 29.00787 | -81.94306 | 8509 ft | 295 kts | 126° |
| 2026-05-05 23:46 | 28.99615 | -81.92395 | 8192 ft | 294 kts | 126° |
| 2026-05-05 23:46 | 28.98438 | -81.90493 | 7866 ft | 293 kts | 126° |
| 2026-05-05 23:47 | 28.97264 | -81.88598 | 7557 ft | 291 kts | 126° |
| 2026-05-05 23:47 | 28.96104 | -81.86725 | 7273 ft | 288 kts | 126° |
| 2026-05-05 23:47 | 28.94949 | -81.84859 | 6975 ft | 285 kts | 126° |
| 2026-05-05 23:47 | 28.93805 | -81.83014 | 6684 ft | 284 kts | 126° |
| 2026-05-05 23:48 | 28.92674 | -81.81190 | 6384 ft | 278 kts | 126° |
| 2026-05-05 23:48 | 28.91568 | -81.79409 | 6088 ft | 274 kts | 126° |
| 2026-05-05 23:48 | 28.90471 | -81.77639 | 5803 ft | 271 kts | 126° |
| 2026-05-05 23:48 | 28.89437 | -81.75852 | 5505 ft | 270 kts | 117° |
| 2026-05-05 23:49 | 28.88695 | -81.73882 | 5188 ft | 270 kts | 113° |
| 2026-05-05 23:49 | 28.87990 | -81.71941 | 4914 ft | 267 kts | 113° |
| 2026-05-05 23:49 | 28.87273 | -81.69989 | 4627 ft | 265 kts | 113° |
| 2026-05-05 23:49 | 28.86559 | -81.68056 | 4340 ft | 262 kts | 114° |
| 2026-05-05 23:50 | 28.85852 | -81.66151 | 4073 ft | 259 kts | 114° |
| 2026-05-05 23:50 | 28.85161 | -81.64288 | 3926 ft | 250 kts | 115° |
| 2026-05-05 23:50 | 28.84496 | -81.62503 | 3819 ft | 237 kts | 114° |
| 2026-05-05 23:50 | 28.83875 | -81.60834 | 3698 ft | 222 kts | 114° |
| 2026-05-05 23:51 | 28.83284 | -81.59257 | 3607 ft | 209 kts | 115° |
| 2026-05-05 23:51 | 28.82735 | -81.57782 | 3501 ft | 197 kts | 114° |
| 2026-05-05 23:51 | 28.82207 | -81.56368 | 3404 ft | 187 kts | 114° |
| 2026-05-05 23:51 | 28.81701 | -81.55020 | 3344 ft | 187 kts | 114° |
| 2026-05-05 23:52 | 28.81189 | -81.53647 | 3235 ft | 184 kts | 114° |
| 2026-05-05 23:52 | 28.80690 | -81.52307 | 3033 ft | 184 kts | 114° |
| 2026-05-05 23:52 | 28.80197 | -81.50991 | 2733 ft | 182 kts | 113° |
| 2026-05-05 23:52 | 28.79700 | -81.49666 | 2423 ft | 181 kts | 112° |
| 2026-05-05 23:53 | 28.79214 | -81.48375 | 2235 ft | 175 kts | 112° |
| 2026-05-05 23:53 | 28.78740 | -81.47102 | 2079 ft | 174 kts | 111° |
| 2026-05-05 23:53 | 28.78287 | -81.45822 | 1989 ft | 173 kts | 104° |
| 2026-05-05 23:53 | 28.78149 | -81.44467 | 1980 ft | 173 kts | 91° |
| 2026-05-05 23:54 | 28.78140 | -81.43100 | 2008 ft | 173 kts | 90° |
| 2026-05-05 23:54 | 28.78144 | -81.41744 | 2023 ft | 167 kts | 90° |
| 2026-05-05 23:54 | 28.78147 | -81.40455 | 2060 ft | 162 kts | 90° |
| 2026-05-05 23:54 | 28.78149 | -81.39171 | 2038 ft | 162 kts | 90° |
| 2026-05-05 23:55 | 28.78151 | -81.37879 | 1995 ft | 163 kts | 90° |
| 2026-05-05 23:55 | 28.78154 | -81.36591 | 1903 ft | 158 kts | 90° |
| 2026-05-05 23:55 | 28.78156 | -81.35426 | 1794 ft | 141 kts | 91° |
| 2026-05-05 23:55 | 28.78156 | -81.34326 | 1605 ft | 137 kts | 90° |
| 2026-05-05 23:56 | 28.78159 | -81.33245 | 1418 ft | 136 kts | 90° |
| 2026-05-05 23:56 | 28.78162 | -81.32161 | 1234 ft | 138 kts | 89° |
| 2026-05-05 23:56 | 28.78166 | -81.31061 | 1078 ft | 139 kts | 91° |
| 2026-05-05 23:56 | 28.78163 | -81.29967 | 899 ft | 136 kts | 91° |
| 2026-05-05 23:57 | 28.78170 | -81.28905 | 694 ft | 132 kts | 91° |
| 2026-05-05 23:57 | 28.78166 | -81.27870 | 501 ft | 131 kts | 92° |
| 2026-05-05 23:57 | 28.78178 | -81.26817 | 351 ft | 135 kts | 91° |
| 2026-05-05 23:57 | 28.78173 | -81.25728 | 143 ft | 140 kts | 91° |
| 2026-05-05 23:58 | 28.78171 | -81.24699 | 57 ft | 111 kts | 89° |
| 2026-05-05 23:58 | 28.78177 | -81.24055 | 63 ft | 55 kts | 90° |
| 2026-05-05 23:58 | 28.78177 | -81.23746 | 63 ft | 20 kts | 89° |
| 2026-05-05 23:58 | 28.78150 | -81.23643 | 63 ft | 13 kts | 149° |
| 2026-05-05 23:59 | 28.78054 | -81.23634 | 62 ft | 16 kts | 180° |
| 2026-05-05 23:59 | 28.77932 | -81.23637 | 57 ft | 19 kts | 182° |
| 2026-05-05 23:59 | 28.77821 | -81.23634 | 61 ft | 13 kts | 177° |
| 2026-05-05 23:59 | 28.77763 | -81.23682 | 64 ft | 13 kts | 268° |
| 2026-05-06 00:00 | 28.77765 | -81.23789 | 60 ft | 15 kts | 270° |
| 2026-05-06 00:00 | 28.77765 | -81.23924 | 61 ft | 17 kts | 270° |
| 2026-05-06 00:00 | 28.77765 | -81.24008 | 55 ft | 10 kts | 269° |
| 2026-05-06 00:00 | 28.77764 | -81.24097 | 61 ft | 13 kts | 268° |
| 2026-05-06 00:01 | 28.77762 | -81.24201 | 62 ft | 14 kts | 270° |
| 2026-05-06 00:01 | 28.77763 | -81.24324 | 60 ft | 17 kts | 270° |
| 2026-05-06 00:01 | 28.77758 | -81.24433 | 51 ft | 9 kts | 248° |
| 2026-05-06 00:01 | 28.77710 | -81.24452 | 57 ft | 7 kts | 174° |
| 2026-05-06 00:02 | 28.77667 | -81.24447 | 58 ft | 6 kts | 179° |
| 2026-05-06 00:02 | 28.77631 | -81.24453 | 57 ft | 4 kts | 221° |
| 2026-05-06 00:02 | 28.77624 | -81.24476 | 64 ft | 0 kts | 268° |
| 2026-05-06 00:02 | 28.77624 | -81.24479 | 64 ft | 0 kts | 266° |